createdAt,value
2019-04-27T00:01:48.273Z,19.00
2019-04-27T00:04:11.651Z,17.47
2019-04-27T00:06:38.207Z,18.53
2019-04-27T00:09:03.553Z,18.20
2019-04-27T00:11:29.341Z,19.83
2019-04-27T00:13:55.335Z,22.67
2019-04-27T00:16:23.474Z,18.53
2019-04-27T00:18:49.811Z,18.43
2019-04-27T00:21:15.244Z,19.50
2019-04-27T00:23:40.960Z,18.77
2019-04-27T00:26:06.927Z,17.47
2019-04-27T00:28:33.253Z,16.53
2019-04-27T00:30:58.979Z,17.10
2019-04-27T00:33:25.003Z,22.33
2019-04-27T00:35:51.012Z,18.17
2019-04-27T00:38:17.418Z,17.50
2019-04-27T00:40:43.703Z,17.97
2019-04-27T00:43:09.496Z,22.10
2019-04-27T00:45:35.516Z,21.57
2019-04-27T00:48:03.333Z,19.37
2019-04-27T00:50:28.367Z,18.03
2019-04-27T00:52:54.366Z,17.10
2019-04-27T00:55:20.418Z,19.20
2019-04-27T00:57:46.430Z,18.27
2019-04-27T01:00:13.425Z,18.43
2019-04-27T01:02:38.498Z,18.57
2019-04-27T01:05:05.922Z,21.27
2019-04-27T01:07:30.588Z,19.30
2019-04-27T01:09:57.362Z,19.30
2019-04-27T01:12:23.707Z,18.93
2019-04-27T01:14:49.463Z,20.30
2019-04-27T01:17:15.440Z,18.57
2019-04-27T01:19:41.481Z,18.97
2019-04-27T01:22:08.731Z,17.73
2019-04-27T01:24:33.566Z,18.57
2019-04-27T01:27:00.037Z,23.43
2019-04-27T01:29:25.653Z,22.17
2019-04-27T01:31:51.615Z,19.47
2019-04-27T01:34:19.155Z,16.63
2019-04-27T01:36:43.638Z,17.00
2019-04-27T01:39:09.644Z,19.20
2019-04-27T01:41:36.409Z,17.87
2019-04-27T01:44:02.407Z,18.53
2019-04-27T01:46:29.646Z,17.83
2019-04-27T01:48:55.182Z,20.83
2019-04-27T01:51:21.924Z,19.20
2019-04-27T01:53:49.166Z,18.67
2019-04-27T01:56:14.028Z,20.67
2019-04-27T01:58:40.767Z,20.30
2019-04-27T02:01:06.795Z,20.67
2019-04-27T02:03:33.326Z,17.90
2019-04-27T02:05:59.592Z,23.10
2019-04-27T02:08:25.590Z,18.27
2019-04-27T02:10:51.592Z,19.73
2019-04-27T02:13:18.887Z,19.30
2019-04-27T02:15:43.586Z,21.70
2019-04-27T02:18:09.618Z,18.97
2019-04-27T02:20:35.650Z,18.43
2019-04-27T02:23:01.631Z,18.00
2019-04-27T02:25:29.484Z,18.90
2019-04-27T02:27:54.484Z,17.67
2019-04-27T02:30:21.266Z,21.33
2019-04-27T02:32:49.744Z,18.20
2019-04-27T02:35:13.321Z,21.30
2019-04-27T02:37:40.372Z,19.43
2019-04-27T02:40:05.382Z,20.63
2019-04-27T02:42:31.382Z,17.73
2019-04-27T02:44:59.820Z,21.50
2019-04-27T02:47:24.184Z,21.53
2019-04-27T02:49:50.883Z,19.97
2019-04-27T02:52:16.309Z,17.53
2019-04-27T02:54:42.317Z,19.80
2019-04-27T02:57:10.130Z,21.50
2019-04-27T02:59:35.092Z,21.77
2019-04-27T03:02:01.839Z,22.23
2019-04-27T03:04:30.142Z,19.57
2019-04-27T03:06:53.935Z,19.77
2019-04-27T03:09:20.582Z,20.23
2019-04-27T03:11:45.950Z,22.33
2019-04-27T03:14:28.440Z,22.03
2019-04-27T03:16:39.500Z,19.83
2019-04-27T03:19:16.754Z,19.70
2019-04-27T03:21:30.133Z,17.27
2019-04-27T03:23:56.844Z,21.93
2019-04-27T03:26:22.835Z,25.87
2019-04-27T03:28:50.278Z,21.77
2019-04-27T03:31:14.865Z,23.80
2019-04-27T03:33:42.790Z,24.47
2019-04-27T03:36:06.922Z,25.57
2019-04-27T03:38:32.949Z,21.10
2019-04-27T03:41:00.505Z,19.77
2019-04-27T03:43:25.779Z,20.97
2019-04-27T03:45:52.308Z,22.10
2019-04-27T03:48:20.188Z,21.73
2019-04-27T03:50:43.955Z,20.47
2019-04-27T03:53:10.436Z,19.00
2019-04-27T03:55:36.036Z,18.13
2019-04-27T03:58:02.079Z,22.43
2019-04-27T04:00:30.041Z,19.60
2019-04-27T04:02:54.097Z,19.67
2019-04-27T04:05:20.097Z,20.17
2019-04-27T04:07:46.129Z,19.33
2019-04-27T04:10:12.150Z,19.30
2019-04-27T04:12:40.047Z,19.00
2019-04-27T04:15:04.245Z,21.03
2019-04-27T04:17:31.258Z,20.23
2019-04-27T04:19:58.531Z,18.33
2019-04-27T04:22:23.858Z,25.40
2019-04-27T04:24:50.640Z,20.37
2019-04-27T04:27:15.954Z,19.07
2019-04-27T04:29:41.994Z,20.70
2019-04-27T04:32:10.436Z,19.40
2019-04-27T04:34:34.854Z,21.27
2019-04-27T04:37:00.856Z,20.97
2019-04-27T04:39:29.664Z,20.97
2019-04-27T04:41:54.447Z,18.60
2019-04-27T04:44:20.499Z,16.27
2019-04-27T04:46:46.488Z,16.13
2019-04-27T04:49:12.511Z,21.47
2019-04-27T04:51:40.149Z,15.07
2019-04-27T04:54:05.347Z,16.77
2019-04-27T04:56:31.327Z,17.57
2019-04-27T04:58:57.362Z,14.53
2019-04-27T05:01:23.386Z,17.40
2019-04-27T05:03:49.435Z,20.67
2019-04-27T05:06:15.437Z,15.00
2019-04-27T05:08:41.493Z,14.73
2019-04-27T05:11:09.651Z,17.10
2019-04-27T05:13:34.306Z,13.53
2019-04-27T05:16:00.278Z,16.13
2019-04-27T05:18:26.263Z,15.30
2019-04-27T05:20:52.313Z,15.20
2019-04-27T05:23:18.705Z,13.47
2019-04-27T05:25:44.400Z,12.47
2019-04-27T05:28:11.107Z,14.60
2019-04-27T05:30:38.910Z,12.80
2019-04-27T05:33:03.185Z,17.63
2019-04-27T05:35:29.756Z,13.40
2019-04-27T05:37:55.286Z,12.37
2019-04-27T05:40:21.298Z,13.23
2019-04-27T05:42:48.872Z,11.90
2019-04-27T05:45:15.356Z,12.17
2019-04-27T05:47:43.239Z,10.63
2019-04-27T05:50:05.462Z,10.47
2019-04-27T05:52:31.442Z,9.10
2019-04-27T05:54:59.003Z,9.60
2019-04-27T05:57:23.622Z,11.97
2019-04-27T05:59:50.386Z,11.03
2019-04-27T06:02:17.097Z,12.00
2019-04-27T06:04:43.127Z,9.77
2019-04-27T06:07:09.859Z,11.87
2019-04-27T06:09:35.873Z,9.23
2019-04-27T06:12:02.629Z,11.07
2019-04-27T06:14:29.249Z,10.33
2019-04-27T06:16:54.719Z,13.70
2019-04-27T06:19:20.714Z,10.83
2019-04-27T06:21:46.734Z,10.67
2019-04-27T06:24:12.757Z,8.27
2019-04-27T06:26:39.963Z,8.23
2019-04-27T06:29:05.574Z,8.23
2019-04-27T06:31:31.636Z,9.63
2019-04-27T06:33:59.533Z,8.63
2019-04-27T06:36:23.828Z,6.93
2019-04-27T06:38:49.939Z,9.80
2019-04-27T06:41:15.989Z,9.70
2019-04-27T06:43:42.000Z,6.17
2019-04-27T06:46:08.786Z,6.53
2019-04-27T06:48:34.145Z,8.30
2019-04-27T06:51:03.684Z,6.03
2019-04-27T06:53:26.267Z,7.40
2019-04-27T06:55:52.294Z,7.37
2019-04-27T06:58:20.004Z,6.50
2019-04-27T07:00:44.353Z,6.43
2019-04-27T07:03:11.116Z,6.50
2019-04-27T07:05:38.702Z,4.83
2019-04-27T07:08:03.947Z,4.07
2019-04-27T07:10:29.941Z,3.73
2019-04-27T07:12:55.994Z,3.70
2019-04-27T07:15:22.000Z,3.57
2019-04-27T07:17:48.767Z,3.90
2019-04-27T07:20:14.062Z,5.13
2019-04-27T07:22:40.127Z,4.80
2019-04-27T07:25:06.167Z,4.30
2019-04-27T07:27:32.199Z,4.33
2019-04-27T07:30:00.802Z,6.00
2019-04-27T07:32:24.291Z,5.23
2019-04-27T07:34:51.025Z,5.27
2019-04-27T07:37:17.086Z,4.00
2019-04-27T07:39:43.080Z,3.00
2019-04-27T07:42:09.882Z,3.87
2019-04-27T07:44:36.671Z,5.00
2019-04-27T07:47:02.694Z,3.90
2019-04-27T07:49:29.440Z,2.90
2019-04-27T07:51:55.564Z,4.17
2019-04-27T07:54:21.586Z,4.33
2019-04-27T07:56:48.817Z,3.00
2019-04-27T07:59:14.491Z,3.17
2019-04-27T08:01:40.447Z,3.40
2019-04-27T08:04:06.490Z,4.93
2019-04-27T08:06:33.233Z,2.60
2019-04-27T08:09:00.013Z,3.33
2019-04-27T08:11:26.007Z,5.20
2019-04-27T08:13:52.766Z,6.47
2019-04-27T08:16:20.631Z,4.30
2019-04-27T08:18:44.849Z,5.47
2019-04-27T08:21:10.861Z,4.20
2019-04-27T08:23:36.887Z,5.43
2019-04-27T08:26:02.858Z,5.00
2019-04-27T08:28:29.616Z,3.73
2019-04-27T08:30:55.583Z,5.50
2019-04-27T08:33:21.598Z,7.67
2019-04-27T08:35:49.060Z,4.53
2019-04-27T08:38:13.621Z,2.80
2019-04-27T08:40:39.594Z,5.87
2019-04-27T08:43:05.630Z,5.40
2019-04-27T08:45:31.613Z,4.57
2019-04-27T08:47:59.400Z,3.63
2019-04-27T08:50:23.670Z,3.20
2019-04-27T08:52:50.168Z,5.43
2019-04-27T08:55:15.703Z,4.73
2019-04-27T08:57:41.685Z,4.53
2019-04-27T09:00:09.448Z,5.17
2019-04-27T09:02:44.120Z,4.13
2019-04-27T09:05:00.509Z,3.83
2019-04-27T09:07:26.514Z,4.43
2019-04-27T09:09:52.535Z,4.80
2019-04-27T09:12:19.595Z,3.87
2019-04-27T09:14:45.318Z,3.67
2019-04-27T09:17:11.299Z,5.00
2019-04-27T09:19:39.357Z,4.40
2019-04-27T09:22:15.311Z,3.77
2019-04-27T09:24:30.167Z,5.40
2019-04-27T09:26:56.180Z,4.40
2019-04-27T09:29:22.187Z,4.67
2019-04-27T09:31:49.005Z,3.43
2019-04-27T09:34:14.790Z,4.07
2019-04-27T09:36:40.334Z,4.07
2019-04-27T09:39:08.462Z,3.17
2019-04-27T09:41:32.411Z,5.47
2019-04-27T09:43:58.421Z,5.03
2019-04-27T09:46:25.996Z,3.47
2019-04-27T09:48:50.443Z,4.63
2019-04-27T09:51:17.186Z,5.87
2019-04-27T09:53:45.709Z,5.73
2019-04-27T09:56:09.953Z,4.07
2019-04-27T09:58:36.695Z,5.00
2019-04-27T10:01:03.443Z,6.13
2019-04-27T10:03:29.425Z,4.10
2019-04-27T10:05:57.061Z,5.40
2019-04-27T10:08:21.509Z,5.83
2019-04-27T10:10:48.258Z,8.97
2019-04-27T10:13:14.275Z,6.13
2019-04-27T10:15:40.327Z,7.30
2019-04-27T10:18:06.328Z,6.77
2019-04-27T10:20:32.358Z,5.17
2019-04-27T10:22:58.338Z,8.00
2019-04-27T10:25:24.316Z,4.97
2019-04-27T10:27:50.331Z,5.07
2019-04-27T10:30:16.317Z,3.77
2019-04-27T10:32:42.870Z,4.07
2019-04-27T10:35:08.342Z,4.90
2019-04-27T10:37:34.351Z,3.67
2019-04-27T10:40:00.324Z,4.87
2019-04-27T10:42:27.187Z,5.13
2019-04-27T10:44:53.134Z,5.93
2019-04-27T10:47:19.121Z,3.30
2019-04-27T10:49:46.554Z,4.23
2019-04-27T10:52:11.950Z,5.03
2019-04-27T10:54:37.909Z,4.50
2019-04-27T10:57:06.113Z,5.97
2019-04-27T10:59:30.680Z,5.93
2019-04-27T11:01:56.676Z,4.80
2019-04-27T11:04:23.403Z,5.20
2019-04-27T11:06:49.426Z,5.97
2019-04-27T11:09:16.339Z,7.97
2019-04-27T11:11:41.456Z,4.13
2019-04-27T11:14:07.436Z,4.53
2019-04-27T11:16:33.421Z,4.63
2019-04-27T11:18:59.409Z,2.47
2019-04-27T11:21:26.200Z,2.77
2019-04-27T11:23:51.448Z,1.90
2019-04-27T11:26:17.423Z,2.70
2019-04-27T11:28:43.427Z,2.10
2019-04-27T11:31:09.429Z,3.73
2019-04-27T11:33:36.374Z,3.70
2019-04-27T11:36:02.281Z,1.60
2019-04-27T11:38:28.272Z,2.67
2019-04-27T11:40:54.269Z,1.90
2019-04-27T11:43:20.285Z,2.77
2019-04-27T11:45:46.262Z,1.93
2019-04-27T11:48:12.279Z,3.37
2019-04-27T11:50:38.267Z,2.50
2019-04-27T11:53:06.034Z,4.03
2019-04-27T11:55:30.385Z,1.27
2019-04-27T11:57:56.401Z,1.30
2019-04-27T12:00:22.358Z,2.23
2019-04-27T12:02:48.363Z,2.33
2019-04-27T12:05:15.958Z,1.67
2019-04-27T12:07:40.409Z,3.23
2019-04-27T12:10:06.424Z,2.93
2019-04-27T12:12:32.405Z,1.00
2019-04-27T12:14:59.138Z,2.80
2019-04-27T12:17:29.061Z,2.87
2019-04-27T12:19:51.925Z,2.60
2019-04-27T12:22:17.901Z,1.43
2019-04-27T12:24:45.660Z,1.43
2019-04-27T12:27:09.973Z,2.73
2019-04-27T12:29:36.733Z,3.50
2019-04-27T12:32:03.426Z,1.97
2019-04-27T12:34:29.410Z,14.90
2019-04-27T12:36:55.420Z,6.03
2019-04-27T12:39:21.466Z,1.10
2019-04-27T12:41:47.466Z,3.03
2019-04-27T12:44:13.452Z,2.07
2019-04-27T12:46:39.446Z,3.23
2019-04-27T12:49:05.927Z,5.27
2019-04-27T12:51:31.488Z,1.17
2019-04-27T12:53:57.479Z,2.60
2019-04-27T12:56:24.196Z,2.73
2019-04-27T12:58:50.154Z,2.00
2019-04-27T13:01:16.170Z,2.97
2019-04-27T13:03:42.143Z,2.70
2019-04-27T13:06:08.146Z,1.90
2019-04-27T13:08:35.692Z,3.97
2019-04-27T13:11:00.188Z,3.77
2019-04-27T13:13:26.682Z,6.30
2019-04-27T13:15:52.211Z,1.33
2019-04-27T13:18:18.186Z,2.50
2019-04-27T13:20:44.192Z,3.40
2019-04-27T13:23:10.175Z,4.37
2019-04-27T13:25:36.974Z,3.50
2019-04-27T13:28:02.198Z,3.90
2019-04-27T13:30:28.261Z,5.07
2019-04-27T13:32:56.124Z,1.63
2019-04-27T13:35:20.361Z,3.27
2019-04-27T13:37:46.724Z,2.53
2019-04-27T13:40:13.170Z,2.17
2019-04-27T13:42:39.131Z,4.20
2019-04-27T13:45:06.018Z,2.07
2019-04-27T13:47:31.168Z,4.50
2019-04-27T13:49:57.163Z,2.90
2019-04-27T13:52:23.179Z,4.90
2019-04-27T13:54:49.903Z,4.87
2019-04-27T13:57:16.415Z,2.87
2019-04-27T13:59:41.930Z,4.27
2019-04-27T14:02:07.953Z,5.13
2019-04-27T14:04:33.972Z,5.53
2019-04-27T14:07:00.760Z,2.13
2019-04-27T14:09:27.495Z,3.03
2019-04-27T14:11:54.237Z,4.23
2019-04-27T14:14:20.238Z,4.27
2019-04-27T14:16:46.250Z,7.43
2019-04-27T14:19:12.231Z,5.47
2019-04-27T14:21:38.240Z,3.43
2019-04-27T14:24:04.250Z,5.70
2019-04-27T14:26:31.021Z,2.47
2019-04-27T14:28:58.341Z,3.57
2019-04-27T14:31:23.132Z,3.37
2019-04-27T14:33:49.897Z,2.93
2019-04-27T14:36:15.922Z,5.63
2019-04-27T14:38:41.940Z,5.23
2019-04-27T14:41:09.055Z,8.20
2019-04-27T14:43:34.032Z,2.97
2019-04-27T14:46:00.033Z,2.70
2019-04-27T14:48:26.079Z,3.10
2019-04-27T14:50:52.097Z,4.63
2019-04-27T14:53:18.102Z,3.57
2019-04-27T14:55:44.071Z,4.60
2019-04-27T14:58:10.064Z,3.13
2019-04-27T15:00:36.079Z,3.80
2019-04-27T15:03:02.123Z,7.90
2019-04-27T15:05:28.130Z,4.37
2019-04-27T15:07:54.652Z,4.67
2019-04-27T15:10:20.205Z,5.77
2019-04-27T15:12:46.959Z,7.80
2019-04-27T15:15:13.706Z,7.40
2019-04-27T15:17:40.459Z,6.70
2019-04-27T15:20:07.187Z,6.73
2019-04-27T15:22:33.964Z,3.90
2019-04-27T15:25:09.314Z,5.13
2019-04-27T15:27:26.052Z,4.90
2019-04-27T15:29:55.924Z,4.47
2019-04-27T15:32:19.092Z,3.17
2019-04-27T15:34:44.875Z,7.73
2019-04-27T15:37:11.597Z,6.53
2019-04-27T15:39:39.210Z,5.80
2019-04-27T15:42:08.296Z,3.80
2019-04-27T15:44:30.391Z,4.87
2019-04-27T15:46:57.987Z,5.50
2019-04-27T15:49:23.191Z,3.93
2019-04-27T15:51:50.645Z,3.73
2019-04-27T15:54:15.234Z,3.57
2019-04-27T15:56:41.219Z,3.87
2019-04-27T15:59:08.657Z,3.10
2019-04-27T16:01:35.893Z,2.80
2019-04-27T16:04:02.521Z,4.63
2019-04-27T16:06:28.201Z,3.20
2019-04-27T16:08:52.917Z,4.07
2019-04-27T16:11:19.720Z,3.57
2019-04-27T16:13:44.938Z,3.07
2019-04-27T16:16:11.657Z,5.10
2019-04-27T16:18:38.819Z,1.73
2019-04-27T16:21:07.087Z,7.43
2019-04-27T16:23:29.707Z,3.80
2019-04-27T16:25:55.694Z,6.13
2019-04-27T16:28:21.693Z,5.43
2019-04-27T16:30:50.599Z,6.43
2019-04-27T16:33:15.524Z,9.00
2019-04-27T16:35:40.556Z,4.87
2019-04-27T16:38:07.834Z,8.73
2019-04-27T16:40:32.611Z,5.30
2019-04-27T16:42:58.602Z,4.83
2019-04-27T16:45:27.060Z,4.93
2019-04-27T16:47:52.117Z,3.90
2019-04-27T16:50:19.777Z,4.40
2019-04-27T16:52:43.448Z,5.23
2019-04-27T16:55:09.453Z,2.63
2019-04-27T16:57:37.467Z,3.97
2019-04-27T17:00:01.505Z,3.20
2019-04-27T17:02:27.487Z,1.47
2019-04-27T17:04:55.655Z,4.70
2019-04-27T17:07:19.527Z,2.57
2019-04-27T17:09:46.409Z,3.33
2019-04-27T17:12:11.571Z,2.37
2019-04-27T17:14:38.675Z,2.37
2019-04-27T17:17:08.731Z,1.97
2019-04-27T17:19:41.245Z,2.70
2019-04-27T17:22:03.386Z,5.57
2019-04-27T17:24:31.916Z,2.20
2019-04-27T17:26:55.435Z,2.80
2019-04-27T17:29:21.440Z,1.07
2019-04-27T17:31:50.580Z,2.67
2019-04-27T17:34:13.535Z,2.73
2019-04-27T17:36:40.278Z,1.73
2019-04-27T17:39:06.315Z,4.27
2019-04-27T17:41:33.085Z,3.90
2019-04-27T17:43:59.210Z,5.43
2019-04-27T17:46:25.115Z,5.13
2019-04-27T17:48:51.865Z,4.90
2019-04-27T17:51:17.866Z,1.63
2019-04-27T17:53:43.820Z,2.13
2019-04-27T17:56:09.819Z,1.03
2019-04-27T17:58:39.851Z,2.27
2019-04-27T18:01:02.607Z,2.10
2019-04-27T18:03:28.588Z,4.00
2019-04-27T18:05:54.614Z,1.53
2019-04-27T18:08:25.026Z,3.63
2019-04-27T18:10:46.659Z,5.50
2019-04-27T18:13:12.658Z,4.30
2019-04-27T18:15:38.900Z,4.00
2019-04-27T18:18:04.709Z,2.63
2019-04-27T18:20:30.744Z,4.63
2019-04-27T18:22:58.028Z,4.07
2019-04-27T18:25:22.890Z,6.10
2019-04-27T18:27:49.821Z,4.00
2019-04-27T18:30:15.126Z,4.83
2019-04-27T18:32:41.061Z,2.93
2019-04-27T18:35:08.098Z,3.37
2019-04-27T18:37:33.105Z,6.43
2019-04-27T18:39:59.091Z,3.03
2019-04-27T18:42:29.731Z,6.03
2019-04-27T18:44:51.149Z,2.53
2019-04-27T18:47:17.161Z,5.17
2019-04-27T18:49:43.154Z,3.50
2019-04-27T18:52:09.194Z,8.80
2019-04-27T18:54:38.370Z,3.97
2019-04-27T18:57:04.799Z,5.53
2019-04-27T18:59:28.822Z,4.17
2019-04-27T19:01:54.082Z,2.13
2019-04-27T19:04:20.070Z,1.80
2019-04-27T19:06:46.053Z,1.40
2019-04-27T19:09:12.819Z,3.70
2019-04-27T19:11:38.802Z,3.37
2019-04-27T19:14:05.564Z,6.63
2019-04-27T19:16:31.565Z,3.23
2019-04-27T19:18:58.412Z,2.83
2019-04-27T19:21:23.611Z,3.90
2019-04-27T19:23:50.376Z,2.53
2019-04-27T19:26:18.833Z,4.87
2019-04-27T19:28:43.953Z,5.27
2019-04-27T19:31:10.680Z,3.87
2019-04-27T19:33:36.711Z,3.63
2019-04-27T19:36:02.698Z,1.67
2019-04-27T19:38:28.977Z,3.57
2019-04-27T19:40:55.500Z,2.77
2019-04-27T19:43:22.247Z,5.83
2019-04-27T19:45:48.997Z,1.60
2019-04-27T19:48:15.011Z,7.80
2019-04-27T19:50:41.723Z,4.27
2019-04-27T19:53:09.665Z,2.93
2019-04-27T19:55:33.821Z,3.77
2019-04-27T19:58:01.533Z,3.83
2019-04-27T20:00:25.906Z,5.43
2019-04-27T20:02:51.897Z,4.37
2019-04-27T20:05:18.766Z,3.90
2019-04-27T20:07:43.928Z,2.17
2019-04-27T20:10:09.938Z,5.13
2019-04-27T20:12:36.679Z,5.20
2019-04-27T20:15:03.453Z,2.33
2019-04-27T20:17:31.141Z,4.30
2019-04-27T20:19:55.567Z,6.97
2019-04-27T20:22:24.254Z,4.07
2019-04-27T20:24:48.386Z,4.73
2019-04-27T20:27:14.382Z,2.93
2019-04-27T20:29:40.457Z,5.47
2019-04-27T20:32:06.438Z,6.23
2019-04-27T20:34:32.454Z,7.60
2019-04-27T20:36:58.468Z,3.00
2019-04-27T20:39:24.506Z,2.57
2019-04-27T20:41:51.110Z,7.07
2019-04-27T20:44:16.577Z,4.80
2019-04-27T20:46:42.612Z,3.07
2019-04-27T20:49:08.644Z,2.50
2019-04-27T20:51:34.649Z,5.80
2019-04-27T20:54:01.782Z,5.77
2019-04-27T20:56:28.864Z,5.53
2019-04-27T20:58:54.920Z,3.83
2019-04-27T21:01:20.967Z,4.97
2019-04-27T21:03:46.983Z,4.60
2019-04-27T21:06:13.031Z,5.93
2019-04-27T21:08:39.019Z,4.77
2019-04-27T21:11:05.783Z,4.13
2019-04-27T21:13:31.775Z,4.53
2019-04-27T21:15:58.546Z,4.50
2019-04-27T21:18:24.551Z,3.10
2019-04-27T21:20:51.185Z,7.67
2019-04-27T21:23:17.412Z,6.33
2019-04-27T21:25:44.174Z,1.57
2019-04-27T21:28:16.609Z,4.23
2019-04-27T21:30:36.269Z,5.13
2019-04-27T21:33:02.270Z,3.53
2019-04-27T21:35:28.292Z,2.03
2019-04-27T21:37:54.291Z,3.10
2019-04-27T21:40:21.279Z,4.93
2019-04-27T21:42:46.369Z,5.03
2019-04-27T21:45:12.396Z,2.83
2019-04-27T21:47:38.412Z,4.53
2019-04-27T21:50:04.427Z,6.80
2019-04-27T21:52:31.569Z,5.30
2019-04-27T21:54:56.476Z,5.87
2019-04-27T21:57:22.499Z,5.63
2019-04-27T21:59:48.517Z,6.30
2019-04-27T22:02:14.552Z,3.47
2019-04-27T22:04:41.703Z,6.83
2019-04-27T22:07:06.632Z,7.20
2019-04-27T22:09:32.629Z,5.93
2019-04-27T22:11:58.693Z,3.97
2019-04-27T22:14:24.660Z,3.90
2019-04-27T22:16:51.866Z,11.90
2019-04-27T22:19:16.748Z,3.03
2019-04-27T22:21:42.760Z,4.63
2019-04-27T22:24:08.765Z,6.33
2019-04-27T22:26:34.792Z,9.60
2019-04-27T22:29:01.654Z,6.77
2019-04-27T22:31:26.894Z,6.23
2019-04-27T22:33:54.652Z,6.20
2019-04-27T22:36:18.959Z,4.20
2019-04-27T22:38:45.006Z,5.73
2019-04-27T22:41:13.069Z,2.90
2019-04-27T22:43:37.052Z,5.60
2019-04-27T22:46:03.078Z,5.07
2019-04-27T22:48:29.098Z,5.20
2019-04-27T22:50:55.106Z,8.50
2019-04-27T22:53:21.832Z,4.10
2019-04-27T22:55:48.562Z,6.17
2019-04-27T22:58:14.571Z,5.00
2019-04-27T23:00:41.254Z,5.20
2019-04-27T23:03:06.647Z,4.43
2019-04-27T23:05:33.374Z,5.27
2019-04-27T23:08:01.781Z,5.90
2019-04-27T23:10:26.143Z,5.50
2019-04-27T23:12:52.921Z,11.20
2019-04-27T23:15:18.936Z,7.27
2019-04-27T23:17:44.956Z,7.33
2019-04-27T23:20:11.605Z,7.90
2019-04-27T23:22:37.034Z,7.47
2019-04-27T23:25:03.032Z,6.60
2019-04-27T23:27:29.031Z,5.70
2019-04-27T23:29:55.763Z,7.40
2019-04-27T23:32:23.730Z,4.60
2019-04-27T23:34:47.782Z,5.23
2019-04-27T23:37:13.751Z,5.10
2019-04-27T23:39:40.497Z,6.13
2019-04-27T23:42:07.214Z,5.70
2019-04-27T23:44:33.980Z,6.97
2019-04-27T23:46:59.965Z,6.60
2019-04-27T23:49:25.977Z,5.87
2019-04-27T23:51:51.961Z,6.20
2019-04-27T23:54:17.978Z,6.47
2019-04-27T23:56:43.978Z,5.13
2019-04-27T23:59:10.016Z,6.57
